sensor_id;sensor_type;location;lat;lon;timestamp;pressure;altitude;pressure_sealevel;temperature;humidity
68634;BME280;55625;47.072;22.192;2022-08-19T00:01:38;99287.13;;;20.63;76.03
68634;BME280;55625;47.072;22.192;2022-08-19T00:04:08;99284.22;;;20.63;76.12
68634;BME280;55625;47.072;22.192;2022-08-19T00:06:36;99276.66;;;20.60;75.94
68634;BME280;55625;47.072;22.192;2022-08-19T00:09:05;99277.97;;;20.59;76.95
68634;BME280;55625;47.072;22.192;2022-08-19T00:11:33;99279.56;;;20.55;76.50
68634;BME280;55625;47.072;22.192;2022-08-19T00:14:00;99272.25;;;20.48;77.16
68634;BME280;55625;47.072;22.192;2022-08-19T00:16:26;99270.69;;;20.47;77.28
68634;BME280;55625;47.072;22.192;2022-08-19T00:18:52;99265.50;;;20.40;77.47
68634;BME280;55625;47.072;22.192;2022-08-19T00:21:18;99266.00;;;20.38;77.83
68634;BME280;55625;47.072;22.192;2022-08-19T00:23:44;99261.81;;;20.39;77.71
68634;BME280;55625;47.072;22.192;2022-08-19T00:26:11;99250.03;;;20.43;77.68
68634;BME280;55625;47.072;22.192;2022-08-19T00:28:37;99253.44;;;20.41;77.52
68634;BME280;55625;47.072;22.192;2022-08-19T00:31:05;99255.78;;;20.43;77.58
68634;BME280;55625;47.072;22.192;2022-08-19T00:33:32;99251.09;;;20.40;77.54
68634;BME280;55625;47.072;22.192;2022-08-19T00:36:04;99258.13;;;20.39;78.03
68634;BME280;55625;47.072;22.192;2022-08-19T00:38:33;99256.84;;;20.34;78.01
68634;BME280;55625;47.072;22.192;2022-08-19T00:40:59;99260.81;;;20.31;78.21
68634;BME280;55625;47.072;22.192;2022-08-19T00:43:27;99274.69;;;20.33;78.38
68634;BME280;55625;47.072;22.192;2022-08-19T00:45:54;99266.84;;;20.28;78.85
68634;BME280;55625;47.072;22.192;2022-08-19T00:48:21;99266.06;;;20.27;78.24
68634;BME280;55625;47.072;22.192;2022-08-19T00:50:49;99270.31;;;20.21;78.48
68634;BME280;55625;47.072;22.192;2022-08-19T00:53:20;99269.28;;;20.12;78.63
68634;BME280;55625;47.072;22.192;2022-08-19T00:55:49;99271.41;;;20.06;79.06
68634;BME280;55625;47.072;22.192;2022-08-19T00:58:19;99277.19;;;20.01;79.08
68634;BME280;55625;47.072;22.192;2022-08-19T01:00:47;99275.66;;;19.89;79.53
68634;BME280;55625;47.072;22.192;2022-08-19T01:03:18;99275.94;;;19.91;79.06
68634;BME280;55625;47.072;22.192;2022-08-19T01:05:45;99281.94;;;19.87;79.55
68634;BME280;55625;47.072;22.192;2022-08-19T01:08:15;99283.78;;;19.84;79.53
68634;BME280;55625;47.072;22.192;2022-08-19T01:10:54;99281.97;;;19.81;79.56
68634;BME280;55625;47.072;22.192;2022-08-19T01:13:28;99279.13;;;19.76;79.53
68634;BME280;55625;47.072;22.192;2022-08-19T01:16:05;99278.06;;;19.73;79.44
68634;BME280;55625;47.072;22.192;2022-08-19T01:18:35;99279.66;;;19.69;79.78
68634;BME280;55625;47.072;22.192;2022-08-19T01:21:13;99279.66;;;19.74;79.71
68634;BME280;55625;47.072;22.192;2022-08-19T01:23:43;99280.19;;;19.73;79.74
68634;BME280;55625;47.072;22.192;2022-08-19T01:26:20;99278.59;;;19.72;80.29
68634;BME280;55625;47.072;22.192;2022-08-19T01:28:51;99280.97;;;19.73;80.68
68634;BME280;55625;47.072;22.192;2022-08-19T01:31:22;99280.44;;;19.75;80.89
68634;BME280;55625;47.072;22.192;2022-08-19T01:33:50;99288.78;;;19.78;80.91
68634;BME280;55625;47.072;22.192;2022-08-19T01:36:43;99290.09;;;19.83;80.26
68634;BME280;55625;47.072;22.192;2022-08-19T01:39:24;99282.75;;;19.82;80.70
68634;BME280;55625;47.072;22.192;2022-08-19T01:41:50;99274.91;;;19.82;80.48
68634;BME280;55625;47.072;22.192;2022-08-19T01:44:21;99281.19;;;19.81;80.31
68634;BME280;55625;47.072;22.192;2022-08-19T01:46:50;99277.00;;;19.82;80.35
68634;BME280;55625;47.072;22.192;2022-08-19T01:49:20;99282.25;;;19.78;80.48
68634;BME280;55625;47.072;22.192;2022-08-19T01:51:47;99279.63;;;19.80;80.56
68634;BME280;55625;47.072;22.192;2022-08-19T01:54:17;99281.19;;;19.81;80.40
68634;BME280;55625;47.072;22.192;2022-08-19T01:56:43;99279.59;;;19.85;80.29
68634;BME280;55625;47.072;22.192;2022-08-19T01:59:16;99290.34;;;19.85;80.02
68634;BME280;55625;47.072;22.192;2022-08-19T02:01:43;99287.97;;;19.83;79.85
68634;BME280;55625;47.072;22.192;2022-08-19T02:04:09;99295.06;;;19.82;80.22
68634;BME280;55625;47.072;22.192;2022-08-19T02:06:36;99293.50;;;19.81;79.60
68634;BME280;55625;47.072;22.192;2022-08-19T02:09:04;99294.81;;;19.80;79.59
68634;BME280;55625;47.072;22.192;2022-08-19T02:11:32;99298.50;;;19.75;80.17
68634;BME280;55625;47.072;22.192;2022-08-19T02:14:01;99298.22;;;19.73;80.51
68634;BME280;55625;47.072;22.192;2022-08-19T02:16:28;99303.47;;;19.69;80.78
68634;BME280;55625;47.072;22.192;2022-08-19T02:18:56;99292.78;;;19.64;80.58
68634;BME280;55625;47.072;22.192;2022-08-19T02:21:23;99297.50;;;19.62;80.48
68634;BME280;55625;47.072;22.192;2022-08-19T02:23:50;99280.47;;;19.58;80.77
68634;BME280;55625;47.072;22.192;2022-08-19T02:26:17;99280.19;;;19.56;80.98
68634;BME280;55625;47.072;22.192;2022-08-19T02:28:45;99289.59;;;19.51;81.81
68634;BME280;55625;47.072;22.192;2022-08-19T02:31:16;99285.16;;;19.50;81.58
68634;BME280;55625;47.072;22.192;2022-08-19T02:33:43;99277.31;;;19.56;81.48
68634;BME280;55625;47.072;22.192;2022-08-19T02:36:12;99278.38;;;19.53;82.05
68634;BME280;55625;47.072;22.192;2022-08-19T02:38:39;99273.16;;;19.63;80.73
68634;BME280;55625;47.072;22.192;2022-08-19T02:41:17;99265.78;;;19.73;79.98
68634;BME280;55625;47.072;22.192;2022-08-19T02:43:43;99275.19;;;19.73;79.74
68634;BME280;55625;47.072;22.192;2022-08-19T02:46:26;99270.97;;;19.80;79.09
68634;BME280;55625;47.072;22.192;2022-08-19T02:48:55;99267.28;;;19.85;78.33
68634;BME280;55625;47.072;22.192;2022-08-19T02:51:29;99261.78;;;19.87;77.96
68634;BME280;55625;47.072;22.192;2022-08-19T02:53:56;99268.09;;;19.91;77.52
68634;BME280;55625;47.072;22.192;2022-08-19T02:56:23;99275.94;;;19.91;77.65
68634;BME280;55625;47.072;22.192;2022-08-19T02:58:54;99261.53;;;19.91;77.86
68634;BME280;55625;47.072;22.192;2022-08-19T03:01:31;99258.41;;;19.83;78.04
68634;BME280;55625;47.072;22.192;2022-08-19T03:04:00;99260.47;;;19.88;77.80
68634;BME280;55625;47.072;22.192;2022-08-19T03:06:27;99258.66;;;19.85;77.93
68634;BME280;55625;47.072;22.192;2022-08-19T03:08:53;99258.66;;;19.85;77.69
68634;BME280;55625;47.072;22.192;2022-08-19T03:11:29;99255.78;;;19.91;77.21
68634;BME280;55625;47.072;22.192;2022-08-19T03:13:57;99247.13;;;19.91;76.99
68634;BME280;55625;47.072;22.192;2022-08-19T03:16:26;99238.72;;;19.98;76.66
68634;BME280;55625;47.072;22.192;2022-08-19T03:18:55;99242.41;;;19.93;77.25
68634;BME280;55625;47.072;22.192;2022-08-19T03:21:24;99239.28;;;19.91;77.32
68634;BME280;55625;47.072;22.192;2022-08-19T03:23:55;99237.44;;;19.88;77.65
68634;BME280;55625;47.072;22.192;2022-08-19T03:26:21;99237.72;;;19.90;77.56
68634;BME280;55625;47.072;22.192;2022-08-19T03:28:47;99238.50;;;19.91;77.50
68634;BME280;55625;47.072;22.192;2022-08-19T03:31:18;99231.41;;;19.86;77.34
68634;BME280;55625;47.072;22.192;2022-08-19T03:33:45;99233.25;;;19.89;76.96
68634;BME280;55625;47.072;22.192;2022-08-19T03:36:16;99234.53;;;19.99;76.17
68634;BME280;55625;47.072;22.192;2022-08-19T03:38:48;99239.75;;;20.01;76.04
68634;BME280;55625;47.072;22.192;2022-08-19T03:41:22;99238.72;;;19.98;75.86
68634;BME280;55625;47.072;22.192;2022-08-19T03:43:48;99236.66;;;19.93;76.05
68634;BME280;55625;47.072;22.192;2022-08-19T03:46:19;99237.94;;;19.98;76.10
68634;BME280;55625;47.072;22.192;2022-08-19T03:48:51;99248.66;;;19.97;76.41
68634;BME280;55625;47.072;22.192;2022-08-19T03:53:52;99254.19;;;19.95;77.11
68634;BME280;55625;47.072;22.192;2022-08-19T03:56:18;99254.19;;;19.90;77.00
68634;BME280;55625;47.072;22.192;2022-08-19T03:58:45;99260.63;;;20.12;74.01
68634;BME280;55625;47.072;22.192;2022-08-19T04:01:17;99259.88;;;20.06;73.96
68634;BME280;55625;47.072;22.192;2022-08-19T04:03:44;99261.97;;;20.06;73.28
68634;BME280;55625;47.072;22.192;2022-08-19T04:06:16;99271.66;;;20.08;73.26
68634;BME280;55625;47.072;22.192;2022-08-19T04:08:45;99264.53;;;20.21;73.06
68634;BME280;55625;47.072;22.192;2022-08-19T04:11:28;99275.00;;;20.18;72.90
68634;BME280;55625;47.072;22.192;2022-08-19T04:13:55;99269.50;;;20.20;73.11
68634;BME280;55625;47.072;22.192;2022-08-19T04:16:24;99270.31;;;20.21;73.29
68634;BME280;55625;47.072;22.192;2022-08-19T04:18:55;99280.47;;;20.27;73.11
68634;BME280;55625;47.072;22.192;2022-08-19T04:21:25;99277.34;;;20.25;73.08
68634;BME280;55625;47.072;22.192;2022-08-19T04:23:52;99278.31;;;20.39;71.49
68634;BME280;55625;47.072;22.192;2022-08-19T04:26:22;99286.97;;;20.39;71.46
68634;BME280;55625;47.072;22.192;2022-08-19T04:28:49;99290.38;;;20.43;71.34
68634;BME280;55625;47.072;22.192;2022-08-19T04:31:21;99290.34;;;20.49;71.15
68634;BME280;55625;47.072;22.192;2022-08-19T04:33:48;99284.56;;;20.54;70.33
68634;BME280;55625;47.072;22.192;2022-08-19T04:36:31;99282.41;;;20.60;69.89
68634;BME280;55625;47.072;22.192;2022-08-19T04:39:02;99271.13;;;20.62;70.41
68634;BME280;55625;47.072;22.192;2022-08-19T04:41:29;99281.25;;;20.74;69.25
68634;BME280;55625;47.072;22.192;2022-08-19T04:44:14;99279.13;;;20.81;68.80
68634;BME280;55625;47.072;22.192;2022-08-19T04:46:44;99269.84;;;20.93;68.09
68634;BME280;55625;47.072;22.192;2022-08-19T04:49:11;99282.56;;;21.09;67.54
68634;BME280;55625;47.072;22.192;2022-08-19T04:51:41;99286.16;;;21.21;67.43
68634;BME280;55625;47.072;22.192;2022-08-19T04:54:08;99285.09;;;21.24;67.52
68634;BME280;55625;47.072;22.192;2022-08-19T04:56:34;99301.19;;;21.44;67.04
68634;BME280;55625;47.072;22.192;2022-08-19T04:59:00;99298.25;;;21.49;67.05
68634;BME280;55625;47.072;22.192;2022-08-19T05:01:31;99301.09;;;21.55;67.90
68634;BME280;55625;47.072;22.192;2022-08-19T05:04:00;99304.63;;;21.66;66.83
68634;BME280;55625;47.072;22.192;2022-08-19T05:06:27;99318.97;;;21.78;66.57
68634;BME280;55625;47.072;22.192;2022-08-19T05:08:54;99323.13;;;21.82;66.53
68634;BME280;55625;47.072;22.192;2022-08-19T05:11:27;99319.63;;;21.89;66.70
68634;BME280;55625;47.072;22.192;2022-08-19T05:13:54;99319.00;;;21.96;66.18
68634;BME280;55625;47.072;22.192;2022-08-19T05:16:22;99326.28;;;22.09;65.57
68634;BME280;55625;47.072;22.192;2022-08-19T05:18:49;99336.38;;;22.21;65.46
68634;BME280;55625;47.072;22.192;2022-08-19T05:21:34;99319.38;;;22.36;64.14
68634;BME280;55625;47.072;22.192;2022-08-19T05:24:20;99321.47;;;22.54;63.78
68634;BME280;55625;47.072;22.192;2022-08-19T05:26:50;99318.97;;;22.64;63.68
68634;BME280;55625;47.072;22.192;2022-08-19T05:29:19;99314.59;;;22.76;63.17
68634;BME280;55625;47.072;22.192;2022-08-19T05:31:47;99309.13;;;22.91;62.81
68634;BME280;55625;47.072;22.192;2022-08-19T05:34:16;99308.97;;;23.03;61.73
68634;BME280;55625;47.072;22.192;2022-08-19T05:36:44;99298.53;;;23.13;61.26
68634;BME280;55625;47.072;22.192;2022-08-19T05:39:20;99300.66;;;23.26;60.95
68634;BME280;55625;47.072;22.192;2022-08-19T05:41:57;99291.16;;;23.44;59.62
68634;BME280;55625;47.072;22.192;2022-08-19T05:44:26;99290.09;;;23.60;59.35
68634;BME280;55625;47.072;22.192;2022-08-19T05:46:53;99294.34;;;23.72;59.24
68634;BME280;55625;47.072;22.192;2022-08-19T05:49:22;99304.06;;;23.88;58.74
68634;BME280;55625;47.072;22.192;2022-08-19T05:51:48;99305.41;;;24.00;58.59
68634;BME280;55625;47.072;22.192;2022-08-19T05:54:14;99313.06;;;24.11;58.22
68634;BME280;55625;47.072;22.192;2022-08-19T05:56:42;99309.06;;;24.27;57.84
68634;BME280;55625;47.072;22.192;2022-08-19T05:59:10;99305.25;;;24.45;57.49
68634;BME280;55625;47.072;22.192;2022-08-19T06:01:38;99295.19;;;24.60;56.99
68634;BME280;55625;47.072;22.192;2022-08-19T06:04:05;99301.59;;;24.79;56.89
68634;BME280;55625;47.072;22.192;2022-08-19T06:06:32;99305.13;;;24.98;56.08
68634;BME280;55625;47.072;22.192;2022-08-19T06:09:06;99318.28;;;25.13;55.34
68634;BME280;55625;47.072;22.192;2022-08-19T06:11:55;99318.06;;;25.31;55.95
68634;BME280;55625;47.072;22.192;2022-08-19T06:14:31;99320.91;;;25.45;55.81
68634;BME280;55625;47.072;22.192;2022-08-19T06:16:58;99316.75;;;25.61;55.18
68634;BME280;55625;47.072;22.192;2022-08-19T06:19:25;99308.78;;;25.75;55.06
68634;BME280;55625;47.072;22.192;2022-08-19T06:21:52;99311.16;;;25.84;55.20
68634;BME280;55625;47.072;22.192;2022-08-19T06:24:23;99315.09;;;25.94;53.66
68634;BME280;55625;47.072;22.192;2022-08-19T06:26:51;99309.19;;;26.07;54.53
68634;BME280;55625;47.072;22.192;2022-08-19T06:29:21;99309.81;;;26.13;54.04
68634;BME280;55625;47.072;22.192;2022-08-19T06:31:50;99312.38;;;26.24;54.80
68634;BME280;55625;47.072;22.192;2022-08-19T06:34:17;99329.38;;;26.34;53.51
68634;BME280;55625;47.072;22.192;2022-08-19T06:36:48;99330.00;;;26.47;53.71
68634;BME280;55625;47.072;22.192;2022-08-19T06:39:24;99331.22;;;26.59;52.62
68634;BME280;55625;47.072;22.192;2022-08-19T06:41:55;99328.78;;;26.79;53.19
68634;BME280;55625;47.072;22.192;2022-08-19T06:44:24;99336.28;;;27.03;53.30
68634;BME280;55625;47.072;22.192;2022-08-19T06:46:53;99329.31;;;27.21;52.02
68634;BME280;55625;47.072;22.192;2022-08-19T06:49:20;99338.09;;;27.36;52.91
68634;BME280;55625;47.072;22.192;2022-08-19T06:51:47;99338.28;;;27.53;51.37
68634;BME280;55625;47.072;22.192;2022-08-19T06:54:16;99336.59;;;27.66;51.86
68634;BME280;55625;47.072;22.192;2022-08-19T06:56:42;99330.53;;;27.79;51.52
68634;BME280;55625;47.072;22.192;2022-08-19T06:59:16;99322.78;;;27.89;51.60
68634;BME280;55625;47.072;22.192;2022-08-19T07:01:50;99329.16;;;28.03;50.94
68634;BME280;55625;47.072;22.192;2022-08-19T07:04:21;99332.06;;;28.18;50.87
68634;BME280;55625;47.072;22.192;2022-08-19T07:06:49;99330.50;;;28.32;50.67
68634;BME280;55625;47.072;22.192;2022-08-19T07:09:17;99335.56;;;28.32;49.07
68634;BME280;55625;47.072;22.192;2022-08-19T07:11:46;99336.09;;;28.45;49.45
68634;BME280;55625;47.072;22.192;2022-08-19T07:14:13;99337.44;;;28.60;48.30
68634;BME280;55625;47.072;22.192;2022-08-19T07:16:39;99325.34;;;28.63;48.54
68634;BME280;55625;47.072;22.192;2022-08-19T07:19:05;99341.31;;;28.62;48.13
68634;BME280;55625;47.072;22.192;2022-08-19T07:21:32;99326.84;;;28.72;48.49
68634;BME280;55625;47.072;22.192;2022-08-19T07:23:59;99328.75;;;28.92;48.62
68634;BME280;55625;47.072;22.192;2022-08-19T07:26:31;99331.03;;;29.01;46.86
68634;BME280;55625;47.072;22.192;2022-08-19T07:28:58;99337.22;;;29.13;48.42
68634;BME280;55625;47.072;22.192;2022-08-19T07:31:27;99320.41;;;29.21;46.97
68634;BME280;55625;47.072;22.192;2022-08-19T07:33:55;99325.34;;;29.36;46.72
68634;BME280;55625;47.072;22.192;2022-08-19T07:36:27;99322.94;;;29.50;47.32
68634;BME280;55625;47.072;22.192;2022-08-19T07:39:00;99329.22;;;29.71;45.41
68634;BME280;55625;47.072;22.192;2022-08-19T07:41:28;99325.81;;;29.82;45.38
68634;BME280;55625;47.072;22.192;2022-08-19T07:43:56;99329.84;;;29.87;43.70
68634;BME280;55625;47.072;22.192;2022-08-19T07:46:22;99328.81;;;29.92;43.28
68634;BME280;55625;47.072;22.192;2022-08-19T07:48:50;99324.88;;;29.97;44.03
68634;BME280;55625;47.072;22.192;2022-08-19T07:51:20;99332.78;;;30.12;43.58
68634;BME280;55625;47.072;22.192;2022-08-19T07:53:48;99330.06;;;30.31;43.55
68634;BME280;55625;47.072;22.192;2022-08-19T07:56:17;99323.66;;;30.42;42.59
68634;BME280;55625;47.072;22.192;2022-08-19T07:58:46;99321.28;;;30.66;42.04
68634;BME280;55625;47.072;22.192;2022-08-19T08:01:18;99320.91;;;30.79;41.30
68634;BME280;55625;47.072;22.192;2022-08-19T08:03:45;99315.88;;;30.89;41.17
68634;BME280;55625;47.072;22.192;2022-08-19T08:06:30;99313.31;;;30.93;40.77
68634;BME280;55625;47.072;22.192;2022-08-19T08:09:19;99311.25;;;31.13;41.17
68634;BME280;55625;47.072;22.192;2022-08-19T08:11:53;99310.13;;;31.26;39.44
68634;BME280;55625;47.072;22.192;2022-08-19T08:14:31;99311.00;;;31.18;38.29
68634;BME280;55625;47.072;22.192;2022-08-19T08:16:59;99316.00;;;31.26;38.45
68634;BME280;55625;47.072;22.192;2022-08-19T08:19:27;99305.72;;;31.44;40.39
68634;BME280;55625;47.072;22.192;2022-08-19T08:21:57;99309.41;;;31.71;38.65
68634;BME280;55625;47.072;22.192;2022-08-19T08:24:25;99304.97;;;31.53;38.87
68634;BME280;55625;47.072;22.192;2022-08-19T08:26:51;99303.09;;;31.75;39.87
68634;BME280;55625;47.072;22.192;2022-08-19T08:29:17;99306.88;;;32.04;38.69
68634;BME280;55625;47.072;22.192;2022-08-19T08:31:45;99299.28;;;32.11;38.70
68634;BME280;55625;47.072;22.192;2022-08-19T08:34:13;99298.28;;;32.35;38.04
68634;BME280;55625;47.072;22.192;2022-08-19T08:36:43;99298.28;;;32.55;35.52
68634;BME280;55625;47.072;22.192;2022-08-19T08:39:17;99301.06;;;32.82;35.06
68634;BME280;55625;47.072;22.192;2022-08-19T08:44:37;99296.53;;;33.10;32.41
68634;BME280;55625;47.072;22.192;2022-08-19T08:47:11;99288.31;;;33.18;33.35
68634;BME280;55625;47.072;22.192;2022-08-19T08:50:31;99287.94;;;33.33;32.80
68634;BME280;55625;47.072;22.192;2022-08-19T08:53:03;99292.38;;;33.53;32.95
68634;BME280;55625;47.072;22.192;2022-08-19T08:55:31;99291.31;;;33.80;33.07
68634;BME280;55625;47.072;22.192;2022-08-19T09:00:47;99280.41;;;33.92;32.54
68634;BME280;55625;47.072;22.192;2022-08-19T09:03:24;99276.75;;;34.24;32.75
68634;BME280;55625;47.072;22.192;2022-08-19T09:06:07;99278.69;;;34.41;29.35
68634;BME280;55625;47.072;22.192;2022-08-19T09:12:01;99273.44;;;34.40;28.50
68634;BME280;55625;47.072;22.192;2022-08-19T09:17:03;99276.19;;;34.59;27.06
68634;BME280;55625;47.072;22.192;2022-08-19T09:19:36;99266.88;;;34.63;27.56
68634;BME280;55625;47.072;22.192;2022-08-19T09:22:02;99268.56;;;34.77;26.28
68634;BME280;55625;47.072;22.192;2022-08-19T09:24:28;99268.03;;;34.69;27.25
68634;BME280;55625;47.072;22.192;2022-08-19T09:26:53;99271.97;;;34.83;27.82
68634;BME280;55625;47.072;22.192;2022-08-19T09:29:19;99268.28;;;34.95;26.82
68634;BME280;55625;47.072;22.192;2022-08-19T09:31:46;99260.88;;;35.17;26.38
68634;BME280;55625;47.072;22.192;2022-08-19T09:34:12;99259.75;;;35.22;26.49
68634;BME280;55625;47.072;22.192;2022-08-19T09:36:37;99263.50;;;35.34;25.07
68634;BME280;55625;47.072;22.192;2022-08-19T09:39:06;99262.22;;;35.37;24.50
68634;BME280;55625;47.072;22.192;2022-08-19T09:41:32;99255.41;;;35.35;25.14
68634;BME280;55625;47.072;22.192;2022-08-19T09:43:58;99257.91;;;34.94;25.35
68634;BME280;55625;47.072;22.192;2022-08-19T09:46:28;99257.41;;;35.09;24.82
68634;BME280;55625;47.072;22.192;2022-08-19T09:49:00;99261.81;;;35.31;25.32
68634;BME280;55625;47.072;22.192;2022-08-19T09:51:27;99261.81;;;35.43;24.42
68634;BME280;55625;47.072;22.192;2022-08-19T09:54:01;99256.19;;;35.59;25.15
68634;BME280;55625;47.072;22.192;2022-08-19T09:56:28;99260.19;;;35.52;24.23
68634;BME280;55625;47.072;22.192;2022-08-19T09:58:54;99255.94;;;35.55;24.11
68634;BME280;55625;47.072;22.192;2022-08-19T10:01:24;99253.88;;;35.57;26.36
68634;BME280;55625;47.072;22.192;2022-08-19T10:03:54;99250.13;;;35.68;25.15
68634;BME280;55625;47.072;22.192;2022-08-19T10:06:23;99253.88;;;35.92;25.92
68634;BME280;55625;47.072;22.192;2022-08-19T10:08:50;99251.53;;;36.02;25.88
68634;BME280;55625;47.072;22.192;2022-08-19T10:11:19;99241.72;;;36.12;24.44
68634;BME280;55625;47.072;22.192;2022-08-19T10:13:46;99248.69;;;36.16;25.14
68634;BME280;55625;47.072;22.192;2022-08-19T10:16:17;99248.63;;;36.28;24.55
68634;BME280;55625;47.072;22.192;2022-08-19T10:18:44;99241.28;;;36.41;24.85
68634;BME280;55625;47.072;22.192;2022-08-19T10:23:43;99236.88;;;36.53;26.38
68634;BME280;55625;47.072;22.192;2022-08-19T10:26:13;99235.88;;;36.49;25.30
68634;BME280;55625;47.072;22.192;2022-08-19T10:28:41;99233.03;;;36.51;25.61
68634;BME280;55625;47.072;22.192;2022-08-19T10:31:16;99241.13;;;36.01;26.76
68634;BME280;55625;47.072;22.192;2022-08-19T10:33:43;99233.75;;;36.26;26.70
68634;BME280;55625;47.072;22.192;2022-08-19T10:36:18;99229.66;;;36.19;26.61
68634;BME280;55625;47.072;22.192;2022-08-19T10:38:50;99229.94;;;36.00;27.32
68634;BME280;55625;47.072;22.192;2022-08-19T10:41:22;99232.84;;;36.23;26.03
68634;BME280;55625;47.072;22.192;2022-08-19T10:43:54;99226.03;;;36.32;26.53
68634;BME280;55625;47.072;22.192;2022-08-19T10:46:23;99228.59;;;36.26;25.78
68634;BME280;55625;47.072;22.192;2022-08-19T10:48:49;99232.72;;;36.21;24.56
68634;BME280;55625;47.072;22.192;2022-08-19T10:51:16;99223.56;;;36.29;25.94
68634;BME280;55625;47.072;22.192;2022-08-19T10:54:01;99213.22;;;36.53;26.65
68634;BME280;55625;47.072;22.192;2022-08-19T10:56:28;99214.25;;;36.72;26.63
68634;BME280;55625;47.072;22.192;2022-08-19T10:59:14;99222.47;;;36.85;26.58
68634;BME280;55625;47.072;22.192;2022-08-19T11:01:44;99212.38;;;36.90;27.72
68634;BME280;55625;47.072;22.192;2022-08-19T11:04:11;99214.91;;;36.70;24.89
68634;BME280;55625;47.072;22.192;2022-08-19T11:06:44;99215.22;;;36.62;28.27
68634;BME280;55625;47.072;22.192;2022-08-19T11:09:11;99216.50;;;36.34;26.53
68634;BME280;55625;47.072;22.192;2022-08-19T11:11:38;99219.59;;;36.36;25.81
68634;BME280;55625;47.072;22.192;2022-08-19T11:14:13;99198.38;;;36.28;26.08
68634;BME280;55625;47.072;22.192;2022-08-19T11:16:40;99192.63;;;36.30;26.47
68634;BME280;55625;47.072;22.192;2022-08-19T11:19:08;99198.28;;;36.26;25.81
68634;BME280;55625;47.072;22.192;2022-08-19T11:21:39;99183.38;;;36.24;26.15
68634;BME280;55625;47.072;22.192;2022-08-19T11:24:16;99176.22;;;36.15;26.49
68634;BME280;55625;47.072;22.192;2022-08-19T11:26:44;99180.66;;;35.91;26.21
68634;BME280;55625;47.072;22.192;2022-08-19T11:29:13;99180.00;;;35.92;27.04
68634;BME280;55625;47.072;22.192;2022-08-19T11:31:42;99181.69;;;35.95;25.98
68634;BME280;55625;47.072;22.192;2022-08-19T11:34:12;99179.28;;;35.68;28.05
68634;BME280;55625;47.072;22.192;2022-08-19T11:36:41;99172.22;;;35.85;27.31
68634;BME280;55625;47.072;22.192;2022-08-19T11:39:10;99165.25;;;35.92;27.60
68634;BME280;55625;47.072;22.192;2022-08-19T11:41:37;99171.28;;;35.94;26.61
68634;BME280;55625;47.072;22.192;2022-08-19T11:44:04;99170.38;;;35.80;28.95
68634;BME280;55625;47.072;22.192;2022-08-19T11:46:30;99167.81;;;35.74;27.85
68634;BME280;55625;47.072;22.192;2022-08-19T11:48:58;99170.91;;;35.76;28.39
68634;BME280;55625;47.072;22.192;2022-08-19T11:51:27;99160.41;;;35.85;28.88
68634;BME280;55625;47.072;22.192;2022-08-19T11:53:55;99153.78;;;35.98;27.96
68634;BME280;55625;47.072;22.192;2022-08-19T11:56:22;99166.53;;;35.77;27.53
68634;BME280;55625;47.072;22.192;2022-08-19T11:58:49;99150.13;;;35.86;27.46
68634;BME280;55625;47.072;22.192;2022-08-19T12:01:17;99149.28;;;35.97;27.91
68634;BME280;55625;47.072;22.192;2022-08-19T12:03:46;99142.09;;;36.00;27.79
68634;BME280;55625;47.072;22.192;2022-08-19T12:06:17;99144.88;;;36.10;27.85
68634;BME280;55625;47.072;22.192;2022-08-19T12:08:44;99146.69;;;36.03;28.17
68634;BME280;55625;47.072;22.192;2022-08-19T12:11:11;99146.50;;;35.76;28.71
68634;BME280;55625;47.072;22.192;2022-08-19T12:13:39;99140.47;;;35.86;28.98
68634;BME280;55625;47.072;22.192;2022-08-19T12:16:11;99130.56;;;35.93;27.10
68634;BME280;55625;47.072;22.192;2022-08-19T12:18:40;99130.28;;;36.00;28.17
68634;BME280;55625;47.072;22.192;2022-08-19T12:21:10;99132.75;;;35.92;27.47
68634;BME280;55625;47.072;22.192;2022-08-19T12:23:40;99128.97;;;36.03;28.68
68634;BME280;55625;47.072;22.192;2022-08-19T12:26:06;99131.94;;;36.03;29.59
68634;BME280;55625;47.072;22.192;2022-08-19T12:28:32;99125.91;;;36.01;27.73
68634;BME280;55625;47.072;22.192;2022-08-19T12:30:58;99123.59;;;36.00;28.03
68634;BME280;55625;47.072;22.192;2022-08-19T12:33:24;99122.13;;;36.13;27.05
68634;BME280;55625;47.072;22.192;2022-08-19T12:35:53;99113.91;;;35.74;29.30
68634;BME280;55625;47.072;22.192;2022-08-19T12:38:20;99107.34;;;35.87;27.02
68634;BME280;55625;47.072;22.192;2022-08-19T12:40:49;99112.59;;;35.77;26.97
68634;BME280;55625;47.072;22.192;2022-08-19T12:43:18;99117.66;;;35.63;28.23
68634;BME280;55625;47.072;22.192;2022-08-19T12:45:46;99106.25;;;35.57;27.28
68634;BME280;55625;47.072;22.192;2022-08-19T12:48:12;99118.75;;;35.81;27.69
68634;BME280;55625;47.072;22.192;2022-08-19T12:50:43;99108.66;;;35.84;26.97
68634;BME280;55625;47.072;22.192;2022-08-19T12:53:11;99106.34;;;35.71;27.33
68634;BME280;55625;47.072;22.192;2022-08-19T12:55:37;99110.53;;;35.91;28.69
68634;BME280;55625;47.072;22.192;2022-08-19T12:58:04;99109.72;;;36.02;27.01
68634;BME280;55625;47.072;22.192;2022-08-19T13:00:29;99116.44;;;35.79;27.29
68634;BME280;55625;47.072;22.192;2022-08-19T13:08:54;99106.25;;;35.57;28.52
68634;BME280;55625;47.072;22.192;2022-08-19T13:14:21;99107.75;;;35.70;28.79
68634;BME280;55625;47.072;22.192;2022-08-19T13:16:47;99099.19;;;35.62;27.98
68634;BME280;55625;47.072;22.192;2022-08-19T13:19:13;99096.88;;;35.61;28.58
68634;BME280;55625;47.072;22.192;2022-08-19T13:21:39;99093.91;;;35.61;28.53
68634;BME280;55625;47.072;22.192;2022-08-19T13:24:05;99093.69;;;35.45;29.21
68634;BME280;55625;47.072;22.192;2022-08-19T13:26:31;99090.47;;;35.53;26.94
68634;BME280;55625;47.072;22.192;2022-08-19T13:28:57;99092.69;;;35.40;27.60